Belgium, Wisconsin
Current Conditions -  °F | °C
As of 10:15 AM on Saturday 25 Oct 2014 (Local Time) from KETB Reporting Station
Clear Clear  
Wind Chill: 59°   Ceiling: Unl
Heat Index: 59°   Visibility: 10mi
Dew Point: 41°   Wind: 14mph
Humidity: 51%   Direction: 290°WNW
Pressure: 29.91"   Gusts: NA
Location:  43.5°N, 87.85°W
Report Text: KETB 251515Z AUTO 29012KT 10SM CLR 15/05 A2991 RMK AO2
Loading
Personal Weather Stations






























Interactive Weather Map
Tropical Storm Tracking
New forecast layout! Learn more

10-Day Weather Forecast

Advertisements
Track Severe Weather on mobile